Time;durP1;ratioP1;P1;durP2;ratioP2;P2;SDS_P1;SDS_P2;PMS_P1;PMS_P2;Temp;Humidity;BMP_temperature;BMP_pressure;BME280_temperature;BME280_humidity;BME280_pressure;Samples;Min_cycle;Max_cycle;Signal;HPM_P1;HPM_P2
2023/06/30 00:01:32;;;;;;;5.45;4.93;;;18.50;97.70;;;;;;6056316;23;20078;-78
2023/06/30 00:03:58;;;;;;;8.35;3.38;;;18.50;97.30;;;;;;6008414;23;20010;-78
2023/06/30 00:06:23;;;;;;;4.65;3.30;;;18.70;96.50;;;;;;6031043;23;20042;-78
2023/06/30 00:08:49;;;;;;;4.22;3.05;;;18.60;96.20;;;;;;6057029;23;20022;-78
2023/06/30 00:11:15;;;;;;;4.75;2.40;;;18.50;97.20;;;;;;6031835;23;20497;-78
2023/06/30 00:13:40;;;;;;;2.67;1.73;;;18.50;96.30;;;;;;6055550;23;20011;-78
2023/06/30 00:16:06;;;;;;;3.33;1.50;;;18.50;96.50;;;;;;6055725;23;20018;-78
2023/06/30 00:18:32;;;;;;;3.13;1.45;;;18.40;96.40;;;;;;6056026;23;20357;-78
2023/06/30 00:20:57;;;;;;;2.83;1.23;;;18.40;96.50;;;;;;6032323;23;20488;-77
2023/06/30 00:23:27;;;;;;;8.82;1.70;;;18.30;96.80;;;;;;6032878;23;20015;-76
2023/06/30 00:25:52;;;;;;;5.40;2.28;;;18.20;97.40;;;;;;6056397;23;20457;-77
2023/06/30 00:28:18;;;;;;;2.88;1.77;;;18.00;98.30;;;;;;6056040;23;20015;-78
2023/06/30 00:30:44;;;;;;;4.15;2.38;;;17.90;98.70;;;;;;6055753;23;20014;-79
2023/06/30 00:33:09;;;;;;;2.42;1.95;;;17.90;98.80;;;;;;6055290;23;20090;-79
2023/06/30 00:35:35;;;;;;;4.20;2.20;;;17.70;98.80;;;;;;6055818;23;20046;-80
2023/06/30 00:38:00;;;;;;;4.13;2.33;;;17.60;99.50;;;;;;6055508;23;20018;-79
2023/06/30 00:40:26;;;;;;;2.17;1.98;;;17.50;99.70;;;;;;6056075;23;20011;-79
2023/06/30 00:42:51;;;;;;;5.40;2.15;;;17.50;99.90;;;;;;6033659;23;20025;-79
2023/06/30 00:45:17;;;;;;;3.08;2.25;;;17.50;99.90;;;;;;6056986;23;20038;-79
2023/06/30 00:47:42;;;;;;;3.35;2.33;;;17.40;99.90;;;;;;6055890;23;20011;-79
2023/06/30 00:50:08;;;;;;;5.45;3.00;;;17.30;99.70;;;;;;6032111;23;20062;-79
2023/06/30 00:52:35;;;;;;;4.82;3.15;;;17.30;99.90;;;;;;6032169;23;20014;-79
2023/06/30 00:55:00;;;;;;;6.70;2.90;;;17.20;99.90;;;;;;6032088;23;20015;-79
2023/06/30 00:57:26;;;;;;;7.05;3.22;;;17.20;99.90;;;;;;6055713;23;20015;-79
2023/06/30 00:59:51;;;;;;;5.25;3.47;;;17.10;99.90;;;;;;6056240;23;20370;-79
2023/06/30 01:02:20;;;;;;;7.03;4.10;;;17.10;99.90;;;;;;6032397;23;20342;-79
2023/06/30 01:04:51;;;;;;;6.50;3.80;;;17.10;99.90;;;;;;6059193;23;20173;-79
2023/06/30 01:07:25;;;;;;;5.57;3.80;;;17.10;99.90;;;;;;6058720;23;20006;-79
2023/06/30 01:10:00;;;;;;;5.85;3.88;;;17.00;99.90;;;;;;6059251;23;20077;-79
2023/06/30 01:12:26;;;;;;;7.88;3.90;;;17.00;99.90;;;;;;6011490;23;20011;-79
2023/06/30 01:14:51;;;;;;;4.95;3.08;;;16.80;99.90;;;;;;6059976;23;20383;-79
2023/06/30 01:17:17;;;;;;;8.98;3.63;;;16.90;99.90;;;;;;6058358;23;20094;-78
2023/06/30 01:19:44;;;;;;;13.68;4.00;;;16.90;99.90;;;;;;6034519;23;20454;-79
2023/06/30 01:22:29;;;;;;;10.95;4.15;;;16.80;99.90;;;;;;6059164;23;20410;-79
2023/06/30 01:24:58;;;;;;;7.80;4.30;;;16.80;99.90;;;;;;6058595;23;20015;-78
2023/06/30 01:27:23;;;;;;;11.30;4.97;;;16.70;99.90;;;;;;6035551;23;20089;-78
2023/06/30 01:29:50;;;;;;;6.57;4.90;;;16.60;99.90;;;;;;6057839;23;20517;-78
2023/06/30 01:32:17;;;;;;;17.05;5.55;;;16.60;99.90;;;;;;6035039;23;20010;-79
2023/06/30 01:34:45;;;;;;;5.45;3.63;;;16.50;99.90;;;;;;6058961;23;20121;-79
2023/06/30 01:37:11;;;;;;;9.95;4.80;;;16.60;99.90;;;;;;6034665;23;20540;-79
2023/06/30 01:39:37;;;;;;;7.43;4.22;;;16.60;99.90;;;;;;6034476;23;20453;-78
2023/06/30 01:42:02;;;;;;;7.93;4.85;;;16.60;99.90;;;;;;6057714;23;20115;-78
2023/06/30 01:44:28;;;;;;;8.55;4.90;;;16.60;99.90;;;;;;6058745;23;20480;-78
2023/06/30 01:46:53;;;;;;;8.10;5.40;;;16.50;99.90;;;;;;6059341;23;20007;-78
2023/06/30 01:49:19;;;;;;;5.95;5.35;;;16.60;99.90;;;;;;6058556;23;20011;-78
2023/06/30 01:51:44;;;;;;;8.85;7.47;;;16.60;99.90;;;;;;6035035;23;20061;-78
2023/06/30 01:54:10;;;;;;;12.65;6.22;;;16.60;99.90;;;;;;6034349;23;20720;-78
2023/06/30 01:56:36;;;;;;;13.05;6.40;;;16.50;99.90;;;;;;6059342;23;20023;-78
2023/06/30 01:59:01;;;;;;;6.63;4.85;;;16.50;99.90;;;;;;6033444;23;20014;-78
2023/06/30 02:01:27;;;;;;;9.35;5.13;;;16.50;99.90;;;;;;6058909;23;20085;-78
2023/06/30 02:03:52;;;;;;;6.57;4.38;;;16.40;99.90;;;;;;6059407;23;20082;-78
2023/06/30 02:06:18;;;;;;;11.02;4.75;;;16.30;99.90;;;;;;6058575;23;20030;-77
2023/06/30 02:08:43;;;;;;;13.00;5.22;;;16.20;99.90;;;;;;6058641;23;20018;-77
2023/06/30 02:11:09;;;;;;;10.68;4.82;;;16.20;99.90;;;;;;6058335;23;20011;-77
2023/06/30 02:13:35;;;;;;;13.85;4.55;;;16.30;99.90;;;;;;6057889;23;20450;-77
2023/06/30 02:16:00;;;;;;;11.63;4.75;;;16.20;99.90;;;;;;6032845;23;20022;-77
2023/06/30 02:18:26;;;;;;;8.55;3.50;;;16.10;99.90;;;;;;6032430;23;20019;-77
2023/06/30 02:20:51;;;;;;;23.80;4.90;;;16.20;99.90;;;;;;6058040;23;20030;-78
2023/06/30 02:23:17;;;;;;;12.48;5.30;;;16.20;99.90;;;;;;6057012;23;20011;-78
2023/06/30 02:25:42;;;;;;;6.70;4.18;;;16.20;99.90;;;;;;6032525;23;20133;-78
2023/06/30 02:28:08;;;;;;;10.23;5.40;;;16.20;99.90;;;;;;6033338;23;20098;-77
2023/06/30 02:30:34;;;;;;;8.38;4.07;;;16.20;99.90;;;;;;6033446;23;20022;-77
2023/06/30 02:32:59;;;;;;;8.57;4.38;;;16.20;99.90;;;;;;6056999;23;20007;-78
2023/06/30 02:35:25;;;;;;;6.57;3.95;;;16.20;99.90;;;;;;6058384;23;20448;-77
2023/06/30 02:37:51;;;;;;;8.30;4.15;;;16.10;99.90;;;;;;6033584;23;20026;-77
2023/06/30 02:40:16;;;;;;;7.53;4.68;;;16.10;99.90;;;;;;6032740;23;20015;-77
2023/06/30 02:42:42;;;;;;;7.30;4.13;;;16.20;99.90;;;;;;6057102;23;20018;-78
2023/06/30 02:45:08;;;;;;;6.80;4.10;;;16.10;99.90;;;;;;6056930;23;20021;-77
2023/06/30 02:47:33;;;;;;;7.60;4.50;;;16.10;99.90;;;;;;6055509;23;20063;-78
2023/06/30 02:49:59;;;;;;;9.07;4.53;;;16.10;99.90;;;;;;6032577;23;20022;-76
2023/06/30 02:52:24;;;;;;;7.88;3.63;;;16.20;99.90;;;;;;6033626;23;20015;-77
2023/06/30 02:54:50;;;;;;;7.93;2.90;;;16.10;99.90;;;;;;6031688;23;20013;-77
2023/06/30 02:57:15;;;;;;;11.63;4.63;;;16.10;99.90;;;;;;6056367;23;20015;-76
2023/06/30 02:59:41;;;;;;;10.25;4.38;;;16.10;99.90;;;;;;6056212;23;20007;-76
2023/06/30 03:02:06;;;;;;;7.75;3.22;;;16.10;99.90;;;;;;6056773;23;20382;-77
2023/06/30 03:04:32;;;;;;;7.28;4.20;;;16.00;99.90;;;;;;6056772;23;20007;-77
2023/06/30 03:06:57;;;;;;;9.65;4.65;;;16.10;99.90;;;;;;6055934;23;20019;-77
2023/06/30 03:09:23;;;;;;;9.77;4.50;;;15.90;99.90;;;;;;6057537;23;20021;-77
2023/06/30 03:11:48;;;;;;;7.60;3.60;;;15.90;99.90;;;;;;6056345;23;20086;-77
2023/06/30 03:14:14;;;;;;;11.02;4.30;;;15.90;99.90;;;;;;6032866;23;20106;-76
2023/06/30 03:16:39;;;;;;;13.57;4.85;;;16.00;99.90;;;;;;6056080;23;20102;-76
2023/06/30 03:19:05;;;;;;;7.82;3.45;;;15.90;99.90;;;;;;6031752;23;20045;-76
2023/06/30 03:21:30;;;;;;;12.75;4.25;;;15.90;99.90;;;;;;6032390;23;20022;-76
2023/06/30 03:23:56;;;;;;;9.02;4.07;;;15.90;99.90;;;;;;6032824;23;20007;-77
2023/06/30 03:26:23;;;;;;;11.38;4.93;;;15.90;99.90;;;;;;6031887;23;20604;-77
2023/06/30 03:28:48;;;;;;;12.88;3.97;;;15.70;99.90;;;;;;6032526;23;20039;-76
2023/06/30 03:31:14;;;;;;;7.95;4.57;;;15.80;99.90;;;;;;6056159;23;20331;-76
2023/06/30 03:33:39;;;;;;;7.78;3.97;;;15.80;99.90;;;;;;6057221;23;20011;-77
2023/06/30 03:36:05;;;;;;;10.52;4.15;;;15.80;99.90;;;;;;6031686;23;20015;-77
2023/06/30 03:38:31;;;;;;;9.65;4.05;;;15.80;99.90;;;;;;6056491;23;20010;-77
2023/06/30 03:40:56;;;;;;;5.95;3.22;;;15.80;99.90;;;;;;6057479;23;20092;-77
2023/06/30 03:43:23;;;;;;;12.23;3.80;;;15.80;99.90;;;;;;6008682;23;20014;-77
2023/06/30 03:45:49;;;;;;;12.23;3.97;;;15.80;99.90;;;;;;6056136;23;20074;-77
2023/06/30 03:48:14;;;;;;;8.13;4.13;;;15.80;99.90;;;;;;6055869;23;20015;-77
2023/06/30 03:50:41;;;;;;;9.07;3.75;;;15.80;99.90;;;;;;6031174;23;20055;-78
2023/06/30 03:53:07;;;;;;;14.43;4.00;;;15.70;99.90;;;;;;6055273;23;20015;-77
2023/06/30 03:55:32;;;;;;;14.07;4.82;;;15.70;99.90;;;;;;6031885;23;20007;-77
2023/06/30 03:57:58;;;;;;;11.18;4.07;;;15.70;99.90;;;;;;6031228;23;20006;-77
2023/06/30 04:00:23;;;;;;;7.45;3.42;;;15.70;99.90;;;;;;6057213;23;20337;-77
2023/06/30 04:02:49;;;;;;;8.07;3.30;;;15.60;99.90;;;;;;6032055;23;20042;-77
2023/06/30 04:05:14;;;;;;;9.23;3.75;;;15.70;99.90;;;;;;6032162;23;20018;-77
2023/06/30 04:07:40;;;;;;;9.95;3.13;;;15.50;99.90;;;;;;6031324;23;20025;-78
2023/06/30 04:10:06;;;;;;;12.00;3.85;;;15.60;99.90;;;;;;6055470;23;20003;-77
2023/06/30 04:12:31;;;;;;;8.05;3.30;;;15.70;99.90;;;;;;6031556;23;20019;-77
2023/06/30 04:14:57;;;;;;;13.00;3.75;;;15.70;99.90;;;;;;6055464;23;20011;-77
2023/06/30 04:17:23;;;;;;;7.30;3.38;;;15.70;99.90;;;;;;6056650;23;20011;-77
2023/06/30 04:19:48;;;;;;;5.82;2.55;;;15.60;99.90;;;;;;6055196;23;20457;-76
2023/06/30 04:22:14;;;;;;;9.38;3.25;;;15.70;99.90;;;;;;6055615;23;20026;-77
2023/06/30 04:24:39;;;;;;;9.95;3.78;;;15.70;99.90;;;;;;6055257;23;20477;-76
2023/06/30 04:27:05;;;;;;;9.60;3.90;;;15.60;99.90;;;;;;6030839;23;20042;-77
2023/06/30 04:29:31;;;;;;;7.47;3.13;;;15.60;99.90;;;;;;6055589;23;20058;-77
2023/06/30 04:31:56;;;;;;;8.45;3.03;;;15.60;99.90;;;;;;6057125;23;20098;-77
2023/06/30 04:34:22;;;;;;;7.18;3.15;;;15.60;99.90;;;;;;6031827;23;20034;-77
2023/06/30 04:36:49;;;;;;;11.98;3.75;;;15.60;99.90;;;;;;6055122;23;20027;-78
2023/06/30 04:39:15;;;;;;;10.38;3.20;;;15.50;99.90;;;;;;6055365;23;20051;-78
2023/06/30 04:41:41;;;;;;;13.05;3.97;;;15.50;99.90;;;;;;6055545;23;20014;-77
2023/06/30 04:44:06;;;;;;;5.82;2.80;;;15.70;99.90;;;;;;6031334;23;20413;-77
2023/06/30 04:46:32;;;;;;;9.50;3.25;;;15.60;99.90;;;;;;6055128;23;20011;-77
2023/06/30 04:49:00;;;;;;;5.93;2.78;;;15.70;99.90;;;;;;6055522;23;20066;-77
2023/06/30 04:51:26;;;;;;;7.45;3.47;;;15.70;99.90;;;;;;6033383;23;20011;-76
2023/06/30 04:53:51;;;;;;;13.55;3.38;;;15.60;99.90;;;;;;6055150;23;20003;-78
2023/06/30 04:56:17;;;;;;;6.72;2.90;;;15.60;99.90;;;;;;6030038;23;24900;-78
2023/06/30 04:58:42;;;;;;;9.57;3.45;;;15.60;99.90;;;;;;6054225;23;20007;-78
2023/06/30 05:01:08;;;;;;;6.38;2.45;;;15.80;99.90;;;;;;6056214;23;20026;-78
2023/06/30 05:03:34;;;;;;;8.20;3.42;;;15.70;99.90;;;;;;6032310;23;20086;-79
2023/06/30 05:06:00;;;;;;;11.07;3.55;;;15.70;99.90;;;;;;6055157;23;20082;-78
2023/06/30 05:08:25;;;;;;;8.43;3.30;;;15.70;99.90;;;;;;6032724;23;20010;-78
2023/06/30 05:10:51;;;;;;;8.65;3.03;;;15.80;99.90;;;;;;6054957;23;20470;-78
2023/06/30 05:13:16;;;;;;;6.93;2.70;;;16.00;99.90;;;;;;6055165;23;20018;-78
2023/06/30 05:15:42;;;;;;;8.23;3.20;;;16.00;99.90;;;;;;6055683;23;20027;-78
2023/06/30 05:18:08;;;;;;;5.60;2.47;;;16.10;99.90;;;;;;6054982;23;20019;-79
2023/06/30 05:20:34;;;;;;;9.18;3.10;;;16.20;99.90;;;;;;6055841;23;20034;-78
2023/06/30 05:23:00;;;;;;;10.05;3.40;;;16.20;99.90;;;;;;6054657;23;20011;-78
2023/06/30 05:25:25;;;;;;;7.70;3.10;;;16.30;99.90;;;;;;6056896;23;20167;-79
2023/06/30 05:27:51;;;;;;;12.52;2.95;;;16.30;99.90;;;;;;6031192;23;20022;-79
2023/06/30 05:30:18;;;;;;;9.10;3.15;;;16.30;99.90;;;;;;6054038;23;20023;-78
2023/06/30 05:32:43;;;;;;;10.55;2.30;;;16.50;99.90;;;;;;6055456;23;20441;-79
2023/06/30 05:35:09;;;;;;;5.25;2.70;;;16.40;99.90;;;;;;6031022;23;20019;-79
2023/06/30 05:37:35;;;;;;;13.15;3.78;;;16.70;99.90;;;;;;6054529;23;20390;-79
2023/06/30 05:40:01;;;;;;;10.95;2.53;;;16.60;99.90;;;;;;6054911;23;20011;-79
2023/06/30 05:42:26;;;;;;;6.28;2.25;;;16.70;99.90;;;;;;6031744;23;20018;-78
2023/06/30 05:44:52;;;;;;;4.85;1.95;;;16.90;99.90;;;;;;6031198;23;20017;-78
2023/06/30 05:47:17;;;;;;;6.65;2.45;;;16.90;99.90;;;;;;6054816;23;20666;-78
2023/06/30 05:49:43;;;;;;;7.88;2.47;;;17.00;99.90;;;;;;6056715;23;20007;-78
2023/06/30 05:52:08;;;;;;;13.25;3.10;;;17.10;99.90;;;;;;6032657;23;20085;-78
2023/06/30 05:54:34;;;;;;;11.43;2.15;;;17.30;99.90;;;;;;6033136;23;20003;-77
2023/06/30 05:56:59;;;;;;;6.97;2.22;;;17.30;99.90;;;;;;6032514;23;20047;-77
2023/06/30 05:59:27;;;;;;;5.78;2.00;;;17.40;99.90;;;;;;6056345;23;20022;-79
2023/06/30 06:01:54;;;;;;;9.90;2.38;;;17.40;99.90;;;;;;6057696;23;20011;-78
2023/06/30 06:04:19;;;;;;;5.72;1.83;;;17.50;99.90;;;;;;6056920;23;20026;-78
2023/06/30 06:06:45;;;;;;;4.07;1.70;;;17.40;99.90;;;;;;6056474;23;20011;-79
2023/06/30 06:09:11;;;;;;;8.60;2.05;;;17.60;99.90;;;;;;6057948;23;20045;-79
2023/06/30 06:11:36;;;;;;;5.97;2.17;;;17.70;99.90;;;;;;6032551;23;20650;-78
2023/06/30 06:14:02;;;;;;;4.32;1.95;;;17.80;99.90;;;;;;6032960;23;20387;-78
2023/06/30 06:16:27;;;;;;;7.28;2.25;;;17.90;99.90;;;;;;6056737;23;20472;-79
2023/06/30 06:18:53;;;;;;;6.05;2.22;;;18.20;99.90;;;;;;6031919;23;20081;-79
2023/06/30 06:21:20;;;;;;;7.45;1.55;;;18.40;99.90;;;;;;6032108;23;20038;-78
2023/06/30 06:23:45;;;;;;;9.77;1.95;;;18.70;99.90;;;;;;6032408;23;20017;-78
2023/06/30 06:26:11;;;;;;;4.88;1.67;;;19.00;99.90;;;;;;6055780;23;20532;-78
2023/06/30 06:28:37;;;;;;;6.45;1.65;;;19.20;99.90;;;;;;6032550;23;20007;-78
2023/06/30 06:31:03;;;;;;;6.32;1.85;;;19.50;99.90;;;;;;6055753;23;20015;-77
2023/06/30 06:33:30;;;;;;;5.90;1.50;;;19.70;99.90;;;;;;6054721;23;20094;-77
2023/06/30 06:35:56;;;;;;;8.75;1.90;;;20.10;99.90;;;;;;6043939;23;20028;-78
2023/06/30 06:38:21;;;;;;;8.80;2.22;;;20.30;99.90;;;;;;6031396;23;20094;-78
2023/06/30 06:40:47;;;;;;;9.63;1.45;;;20.40;99.90;;;;;;6056125;23;20019;-77
2023/06/30 06:43:12;;;;;;;6.25;1.30;;;20.50;99.90;;;;;;6056390;23;20023;-77
2023/06/30 06:45:38;;;;;;;5.43;1.48;;;20.60;99.90;;;;;;6057776;23;20019;-78
2023/06/30 06:48:29;;;;;;;7.50;1.90;;;20.50;99.90;;;;;;6031618;23;20109;-78
2023/06/30 06:50:55;;;;;;;5.07;1.13;;;20.60;99.90;;;;;;6056510;23;20073;-77
2023/06/30 06:53:22;;;;;;;7.55;1.77;;;20.60;99.90;;;;;;6046256;23;20040;-79
2023/06/30 06:55:49;;;;;;;7.38;1.50;;;20.60;99.90;;;;;;6007384;23;20110;-78
2023/06/30 06:58:14;;;;;;;5.40;1.25;;;20.60;99.90;;;;;;6054964;23;20458;-79
2023/06/30 07:00:40;;;;;;;6.22;1.60;;;20.60;99.90;;;;;;6056393;23;20011;-78
2023/06/30 07:03:05;;;;;;;5.20;1.30;;;20.60;99.90;;;;;;6056557;23;20042;-78
2023/06/30 07:05:31;;;;;;;6.82;1.23;;;20.60;99.90;;;;;;6056039;23;20454;-78
2023/06/30 07:07:57;;;;;;;9.27;1.40;;;20.90;99.90;;;;;;6057326;23;20037;-78
2023/06/30 07:10:23;;;;;;;7.32;1.42;;;21.30;99.90;;;;;;6056652;23;20069;-78
2023/06/30 07:12:48;;;;;;;7.97;1.88;;;21.40;99.90;;;;;;6057256;23;20094;-78
2023/06/30 07:15:14;;;;;;;7.75;1.35;;;21.60;99.90;;;;;;6031343;23;20025;-78
2023/06/30 07:17:40;;;;;;;5.40;1.52;;;21.80;99.90;;;;;;6056596;23;20082;-78
2023/06/30 07:20:06;;;;;;;8.20;1.83;;;22.10;99.90;;;;;;6032591;23;20025;-79
2023/06/30 07:22:32;;;;;;;4.40;1.75;;;22.30;99.90;;;;;;6032903;23;20018;-78
2023/06/30 07:24:59;;;;;;;7.03;1.85;;;22.50;99.90;;;;;;6057427;23;20505;-78
2023/06/30 07:27:24;;;;;;;8.60;1.67;;;22.80;99.90;;;;;;6055344;23;20007;-78
2023/06/30 07:29:50;;;;;;;4.78;1.83;;;22.70;99.90;;;;;;6056394;23;20145;-78
2023/06/30 07:32:16;;;;;;;4.85;1.23;;;23.00;99.90;;;;;;6056591;23;20101;-79
2023/06/30 07:34:42;;;;;;;8.27;1.63;;;23.20;99.90;;;;;;6056840;23;20432;-79
2023/06/30 07:37:07;;;;;;;5.28;1.17;;;23.40;99.90;;;;;;6055570;23;20007;-79
2023/06/30 07:39:34;;;;;;;4.45;1.40;;;23.60;99.90;;;;;;6056175;23;20551;-79
2023/06/30 07:41:59;;;;;;;4.22;1.52;;;23.70;99.90;;;;;;6033543;23;20018;-79
2023/06/30 07:44:25;;;;;;;8.15;2.03;;;23.90;99.90;;;;;;6030006;23;21554;-78
2023/06/30 07:46:51;;;;;;;6.15;1.52;;;24.10;99.90;;;;;;6033495;23;20039;-78
2023/06/30 07:49:16;;;;;;;4.75;1.17;;;24.30;96.60;;;;;;6034219;23;20011;-76
2023/06/30 07:51:42;;;;;;;9.10;1.77;;;24.40;98.50;;;;;;6033715;23;20021;-80
2023/06/30 07:54:07;;;;;;;6.50;1.20;;;24.50;98.50;;;;;;6057965;23;20038;-78
2023/06/30 07:56:33;;;;;;;4.28;1.30;;;24.70;97.40;;;;;;6057419;23;20089;-77
2023/06/30 07:58:59;;;;;;;5.93;1.90;;;24.90;96.00;;;;;;6057074;23;20015;-78
2023/06/30 08:01:25;;;;;;;2.72;1.20;;;25.00;97.60;;;;;;6032110;23;20118;-78
2023/06/30 08:03:51;;;;;;;5.57;1.60;;;25.10;95.10;;;;;;6032030;23;20023;-78
2023/06/30 08:06:17;;;;;;;9.63;1.40;;;25.40;95.10;;;;;;6055673;23;20465;-78
2023/06/30 08:08:42;;;;;;;3.08;1.00;;;25.60;94.10;;;;;;6031825;23;20014;-78
2023/06/30 08:11:08;;;;;;;6.18;1.88;;;25.80;94.50;;;;;;6055867;23;20017;-78
2023/06/30 08:13:33;;;;;;;2.35;1.20;;;25.70;91.50;;;;;;6055786;23;20022;-77
2023/06/30 08:15:59;;;;;;;2.38;0.90;;;25.80;91.90;;;;;;6032160;23;20018;-78
2023/06/30 08:18:27;;;;;;;3.05;1.15;;;25.90;91.60;;;;;;6056233;23;20011;-77
2023/06/30 08:20:52;;;;;;;3.40;1.00;;;25.90;89.60;;;;;;5999224;23;20124;-77
2023/06/30 08:23:18;;;;;;;2.80;1.20;;;26.10;86.80;;;;;;6055065;23;20035;-78
2023/06/30 08:25:43;;;;;;;1.83;0.95;;;26.40;85.40;;;;;;6055205;23;20002;-78
2023/06/30 08:28:09;;;;;;;6.70;1.13;;;26.40;82.30;;;;;;6031010;23;20011;-77
2023/06/30 08:30:35;;;;;;;4.85;1.50;;;26.50;76.70;;;;;;6008436;23;20018;-77
2023/06/30 08:33:00;;;;;;;2.92;0.90;;;26.50;81.50;;;;;;6056128;23;20317;-79
2023/06/30 08:35:26;;;;;;;2.38;0.88;;;26.70;80.60;;;;;;6032220;23;20015;-77
2023/06/30 08:37:52;;;;;;;3.97;1.08;;;26.90;80.70;;;;;;6056605;23;20413;-77
2023/06/30 08:40:29;;;;;;;5.25;1.17;;;27.20;79.40;;;;;;6055874;23;20081;-77
2023/06/30 08:42:58;;;;;;;5.95;1.13;;;27.30;78.30;;;;;;6055130;23;20497;-76
2023/06/30 08:45:25;;;;;;;1.67;0.82;;;27.40;77.50;;;;;;6055086;23;20058;-78
2023/06/30 08:47:51;;;;;;;2.05;0.88;;;27.50;76.00;;;;;;6055434;23;20011;-77
2023/06/30 08:50:16;;;;;;;2.35;0.90;;;27.60;75.30;;;;;;6056462;23;20019;-77
2023/06/30 08:52:43;;;;;;;5.32;1.17;;;27.80;72.90;;;;;;6056479;23;20026;-77
2023/06/30 08:55:08;;;;;;;6.03;1.50;;;27.80;73.80;;;;;;6055496;23;20018;-77
2023/06/30 08:57:34;;;;;;;3.67;1.17;;;28.30;70.90;;;;;;6031067;23;20015;-77
2023/06/30 09:00:00;;;;;;;3.17;0.80;;;28.30;70.50;;;;;;6030904;23;20090;-77
2023/06/30 09:02:25;;;;;;;3.63;0.80;;;28.40;69.50;;;;;;6056148;23;20033;-76
2023/06/30 09:04:51;;;;;;;3.05;0.90;;;28.50;67.20;;;;;;6055284;23;21386;-77
2023/06/30 09:07:25;;;;;;;2.45;1.00;;;28.60;65.80;;;;;;6030905;23;20446;-77
2023/06/30 09:09:50;;;;;;;1.60;0.70;;;28.60;65.60;;;;;;6031408;23;20011;-77
2023/06/30 09:12:16;;;;;;;3.42;1.00;;;28.70;66.30;;;;;;6056210;23;20014;-78
2023/06/30 09:14:41;;;;;;;4.13;0.98;;;28.70;63.10;;;;;;6032235;23;20022;-77
2023/06/30 09:17:07;;;;;;;1.63;0.80;;;28.70;60.40;;;;;;6031296;23;20015;-78
2023/06/30 09:19:33;;;;;;;2.75;0.90;;;28.90;61.00;;;;;;6032121;23;20018;-77
2023/06/30 09:21:59;;;;;;;3.35;0.98;;;28.90;58.10;;;;;;6033065;23;20015;-78
2023/06/30 09:24:25;;;;;;;2.03;1.10;;;28.80;59.40;;;;;;6056448;23;20022;-78
2023/06/30 09:26:52;;;;;;;2.35;1.02;;;28.80;59.70;;;;;;6056866;23;20018;-79
2023/06/30 09:29:23;;;;;;;3.90;1.27;;;29.00;60.10;;;;;;6057445;23;20015;-79
2023/06/30 09:31:52;;;;;;;3.78;0.68;;;29.00;58.60;;;;;;6057196;23;20030;-79
2023/06/30 09:34:19;;;;;;;1.55;0.75;;;29.10;60.10;;;;;;6032663;23;20102;-79
2023/06/30 09:36:49;;;;;;;3.70;1.30;;;29.30;59.50;;;;;;6057031;23;20082;-79
2023/06/30 09:39:15;;;;;;;3.85;1.33;;;29.30;59.70;;;;;;6057221;23;20019;-79
2023/06/30 09:41:44;;;;;;;2.83;1.00;;;29.50;58.60;;;;;;6034156;23;20162;-79
2023/06/30 09:44:10;;;;;;;3.33;0.82;;;29.70;58.90;;;;;;6057526;23;20026;-79
2023/06/30 09:46:35;;;;;;;2.33;0.90;;;29.80;56.30;;;;;;6057277;23;20011;-80
2023/06/30 09:49:04;;;;;;;5.55;0.93;;;30.00;54.70;;;;;;6057106;23;20011;-80
2023/06/30 09:51:33;;;;;;;1.35;0.68;;;30.10;56.10;;;;;;6057821;23;20014;-79
2023/06/30 09:53:58;;;;;;;0.50;0.50;;;30.20;54.80;;;;;;6010152;23;20023;-80
2023/06/30 09:56:26;;;;;;;3.00;0.85;;;30.40;55.80;;;;;;6056777;23;20365;-80
2023/06/30 09:58:56;;;;;;;2.17;0.60;;;30.50;55.10;;;;;;6056884;23;20063;-79
2023/06/30 10:01:23;;;;;;;3.67;1.05;;;30.50;53.60;;;;;;6057991;23;20406;-80
2023/06/30 10:03:54;;;;;;;2.03;0.80;;;30.70;54.20;;;;;;6033508;23;20346;-80
2023/06/30 10:06:25;;;;;;;1.92;0.90;;;30.80;52.90;;;;;;6057635;23;20023;-81
2023/06/30 10:08:53;;;;;;;2.35;1.20;;;31.20;51.80;;;;;;6057677;23;20727;-81
2023/06/30 10:11:20;;;;;;;3.92;1.23;;;31.40;49.30;;;;;;6034438;23;20015;-81
2023/06/30 10:13:47;;;;;;;2.88;0.82;;;31.20;49.70;;;;;;6057695;23;20018;-82
2023/06/30 10:16:12;;;;;;;2.70;1.00;;;31.10;49.30;;;;;;6033409;23;20019;-81
2023/06/30 10:18:42;;;;;;;2.78;0.82;;;31.10;50.90;;;;;;6056481;23;20514;-81
2023/06/30 10:21:08;;;;;;;1.55;0.88;;;31.20;51.30;;;;;;6057241;23;20015;-81
2023/06/30 10:23:34;;;;;;;0.75;0.60;;;31.10;50.40;;;;;;6033006;23;20062;-79
2023/06/30 10:26:00;;;;;;;4.18;0.80;;;31.00;51.90;;;;;;6057161;23;20676;-80
2023/06/30 10:28:26;;;;;;;2.33;0.77;;;31.00;51.60;;;;;;6056135;23;20015;-79
2023/06/30 10:30:55;;;;;;;2.85;0.80;;;30.80;51.60;;;;;;6032288;23;20426;-82
2023/06/30 10:33:21;;;;;;;2.17;0.82;;;30.90;51.20;;;;;;6056818;23;20468;-81
2023/06/30 10:35:47;;;;;;;1.80;0.80;;;31.20;52.20;;;;;;6032097;23;20042;-81
2023/06/30 10:38:13;;;;;;;3.10;0.88;;;31.30;51.20;;;;;;6056899;23;20029;-81
2023/06/30 10:40:38;;;;;;;3.97;0.90;;;31.70;51.70;;;;;;6057213;23;20015;-81
2023/06/30 10:43:05;;;;;;;3.60;1.10;;;32.00;51.30;;;;;;6032926;23;20037;-81
2023/06/30 10:45:34;;;;;;;2.28;1.02;;;32.40;48.60;;;;;;6034235;23;20022;-81
2023/06/30 10:48:09;;;;;;;1.20;1.00;;;32.40;49.90;;;;;;6034001;23;20022;-82
2023/06/30 10:50:41;;;;;;;3.25;1.02;;;32.40;51.30;;;;;;6032919;23;20442;-81
2023/06/30 10:53:07;;;;;;;2.83;1.13;;;32.80;48.80;;;;;;6033505;23;20434;-81
2023/06/30 10:55:32;;;;;;;3.13;1.05;;;33.10;48.10;;;;;;6032436;23;20098;-82
2023/06/30 10:58:01;;;;;;;3.83;1.00;;;33.10;48.10;;;;;;6031906;23;20462;-82
2023/06/30 11:00:29;;;;;;;2.95;1.00;;;33.20;47.10;;;;;;6032740;23;20011;-82
2023/06/30 11:02:57;;;;;;;2.65;1.08;;;33.60;46.00;;;;;;6032905;23;20015;-82
2023/06/30 11:05:24;;;;;;;2.78;1.10;;;33.50;45.30;;;;;;6056755;23;20475;-80
2023/06/30 11:07:53;;;;;;;2.47;1.10;;;33.30;46.00;;;;;;6056554;23;20353;-82
2023/06/30 11:10:26;;;;;;;3.13;1.05;;;32.90;45.80;;;;;;6056802;23;20090;-82
2023/06/30 11:12:52;;;;;;;3.35;0.85;;;32.90;46.40;;;;;;6032687;23;20014;-82
2023/06/30 11:15:25;;;;;;;3.40;1.30;;;32.80;46.40;;;;;;6032546;23;20449;-82
2023/06/30 11:17:51;;;;;;;3.67;1.00;;;32.80;46.80;;;;;;6055433;23;20326;-81
2023/06/30 11:20:17;;;;;;;2.03;0.95;;;32.90;45.60;;;;;;6056732;23;20105;-80
2023/06/30 11:23:09;;;;;;;2.92;1.10;;;33.20;45.90;;;;;;6057246;23;20022;-80
2023/06/30 11:25:35;;;;;;;4.00;1.27;;;33.30;46.10;;;;;;6025343;23;20011;-81
2023/06/30 11:28:04;;;;;;;4.40;1.40;;;33.30;42.20;;;;;;6032765;23;20691;-81
2023/06/30 11:30:36;;;;;;;3.50;1.27;;;33.10;43.10;;;;;;6055791;23;20492;-80
2023/06/30 11:33:02;;;;;;;5.93;1.38;;;32.80;42.00;;;;;;6032565;23;20394;-81
2023/06/30 11:35:29;;;;;;;4.57;1.20;;;32.40;43.00;;;;;;6032757;23;20027;-81
2023/06/30 11:37:54;;;;;;;1.55;0.90;;;32.30;44.40;;;;;;6055404;23;20607;-80
2023/06/30 11:40:21;;;;;;;6.25;1.23;;;32.20;44.80;;;;;;6032189;23;20023;-80
2023/06/30 11:42:47;;;;;;;3.95;0.85;;;32.20;45.10;;;;;;6056777;23;20102;-83
2023/06/30 11:45:19;;;;;;;2.83;1.02;;;32.10;44.40;;;;;;6031857;23;20098;-81
2023/06/30 11:47:46;;;;;;;1.88;1.02;;;32.00;44.90;;;;;;6055745;23;20013;-81
2023/06/30 11:50:12;;;;;;;3.63;1.13;;;32.10;45.30;;;;;;6031576;23;20021;-81
2023/06/30 11:52:38;;;;;;;5.50;1.20;;;32.30;44.10;;;;;;6054595;23;20086;-80
2023/06/30 11:55:07;;;;;;;4.63;1.30;;;32.40;44.30;;;;;;6032087;23;20003;-82
2023/06/30 11:57:36;;;;;;;5.70;1.13;;;32.60;43.80;;;;;;6033005;23;20007;-81
2023/06/30 12:00:11;;;;;;;3.13;1.33;;;32.60;43.90;;;;;;6054958;23;20454;-81
2023/06/30 12:02:40;;;;;;;1.38;0.95;;;32.60;43.80;;;;;;6056630;23;20038;-81
2023/06/30 12:05:17;;;;;;;1.35;0.80;;;32.70;45.20;;;;;;6056764;23;20014;-81
2023/06/30 12:07:44;;;;;;;3.25;1.40;;;32.90;44.70;;;;;;6008799;23;20054;-82
2023/06/30 12:10:10;;;;;;;6.22;1.35;;;33.10;45.10;;;;;;6055187;23;20007;-81
2023/06/30 12:12:36;;;;;;;3.15;0.90;;;33.60;43.10;;;;;;6033091;23;20453;-82
2023/06/30 12:15:07;;;;;;;3.30;1.13;;;33.80;43.60;;;;;;6054203;23;20007;-82
2023/06/30 12:17:36;;;;;;;2.05;1.00;;;34.10;42.50;;;;;;6056440;23;20015;-82
2023/06/30 12:20:02;;;;;;;2.53;1.20;;;34.40;42.60;;;;;;6056101;23;20018;-82
2023/06/30 12:22:27;;;;;;;3.80;1.45;;;34.70;42.20;;;;;;6056326;23;20066;-82
2023/06/30 12:24:58;;;;;;;2.92;1.52;;;34.40;43.80;;;;;;6055575;23;20018;-82
2023/06/30 12:27:27;;;;;;;4.07;1.95;;;34.70;42.80;;;;;;6032230;23;20011;-82
2023/06/30 12:29:54;;;;;;;4.70;1.63;;;34.70;42.20;;;;;;6031870;23;20007;-82
2023/06/30 12:32:20;;;;;;;4.45;1.60;;;35.00;41.10;;;;;;6055953;23;20010;-82
2023/06/30 12:34:46;;;;;;;1.67;0.93;;;34.90;42.20;;;;;;6032255;23;20086;-82
2023/06/30 12:37:12;;;;;;;2.45;1.20;;;34.90;41.50;;;;;;6055422;23;20401;-82
2023/06/30 12:39:38;;;;;;;2.83;1.23;;;35.00;40.80;;;;;;6032545;23;20082;-82
2023/06/30 12:42:04;;;;;;;2.15;1.33;;;35.10;38.90;;;;;;6032639;23;20040;-82